sensor_id;sensor_type;location;lat;lon;timestamp;P1;durP1;ratioP1;P2;durP2;ratioP2
11263;SDS011;5689;48.798;9.070;2023-02-13T00:01:05;1.33;;;1.33;;
11263;SDS011;5689;48.798;9.070;2023-02-13T00:03:33;1.30;;;1.30;;
11263;SDS011;5689;48.798;9.070;2023-02-13T00:06:01;1.20;;;1.20;;
11263;SDS011;5689;48.798;9.070;2023-02-13T00:08:32;1.20;;;1.20;;
11263;SDS011;5689;48.798;9.070;2023-02-13T00:11:00;1.27;;;1.27;;
11263;SDS011;5689;48.798;9.070;2023-02-13T00:13:28;1.37;;;1.37;;
11263;SDS011;5689;48.798;9.070;2023-02-13T00:15:56;1.40;;;1.40;;
11263;SDS011;5689;48.798;9.070;2023-02-13T00:18:25;1.40;;;1.40;;
11263;SDS011;5689;48.798;9.070;2023-02-13T00:20:58;1.30;;;1.30;;
11263;SDS011;5689;48.798;9.070;2023-02-13T00:23:28;1.33;;;1.33;;
11263;SDS011;5689;48.798;9.070;2023-02-13T00:25:58;1.23;;;1.23;;
11263;SDS011;5689;48.798;9.070;2023-02-13T00:28:27;1.50;;;1.50;;
11263;SDS011;5689;48.798;9.070;2023-02-13T00:31:01;1.10;;;1.10;;
11263;SDS011;5689;48.798;9.070;2023-02-13T00:33:30;1.40;;;1.40;;
11263;SDS011;5689;48.798;9.070;2023-02-13T00:36:02;1.43;;;1.43;;
11263;SDS011;5689;48.798;9.070;2023-02-13T00:38:31;1.37;;;1.37;;
11263;SDS011;5689;48.798;9.070;2023-02-13T00:41:01;1.33;;;1.33;;
11263;SDS011;5689;48.798;9.070;2023-02-13T00:43:30;1.40;;;1.40;;
11263;SDS011;5689;48.798;9.070;2023-02-13T00:45:58;1.40;;;1.40;;
11263;SDS011;5689;48.798;9.070;2023-02-13T00:48:26;1.30;;;1.30;;
11263;SDS011;5689;48.798;9.070;2023-02-13T00:50:55;1.40;;;1.40;;
11263;SDS011;5689;48.798;9.070;2023-02-13T00:53:24;1.40;;;1.40;;
11263;SDS011;5689;48.798;9.070;2023-02-13T00:55:52;1.50;;;1.50;;
11263;SDS011;5689;48.798;9.070;2023-02-13T00:58:22;1.30;;;1.30;;
11263;SDS011;5689;48.798;9.070;2023-02-13T01:00:51;1.37;;;1.37;;
11263;SDS011;5689;48.798;9.070;2023-02-13T01:03:20;1.30;;;1.30;;
11263;SDS011;5689;48.798;9.070;2023-02-13T01:05:49;1.53;;;1.53;;
11263;SDS011;5689;48.798;9.070;2023-02-13T01:08:18;1.43;;;1.43;;
11263;SDS011;5689;48.798;9.070;2023-02-13T01:10:47;1.60;;;1.60;;
11263;SDS011;5689;48.798;9.070;2023-02-13T01:13:16;1.47;;;1.47;;
11263;SDS011;5689;48.798;9.070;2023-02-13T01:15:46;1.40;;;1.40;;
11263;SDS011;5689;48.798;9.070;2023-02-13T01:18:15;1.30;;;1.30;;
11263;SDS011;5689;48.798;9.070;2023-02-13T01:20:45;1.43;;;1.43;;
11263;SDS011;5689;48.798;9.070;2023-02-13T01:23:23;1.33;;;1.33;;
11263;SDS011;5689;48.798;9.070;2023-02-13T01:25:51;1.30;;;1.30;;
11263;SDS011;5689;48.798;9.070;2023-02-13T01:28:19;1.63;;;1.63;;
11263;SDS011;5689;48.798;9.070;2023-02-13T01:30:52;1.43;;;1.43;;
11263;SDS011;5689;48.798;9.070;2023-02-13T01:33:23;1.50;;;1.50;;
11263;SDS011;5689;48.798;9.070;2023-02-13T01:35:51;1.60;;;1.50;;
11263;SDS011;5689;48.798;9.070;2023-02-13T01:38:20;1.20;;;1.20;;
11263;SDS011;5689;48.798;9.070;2023-02-13T01:40:48;1.40;;;1.40;;
11263;SDS011;5689;48.798;9.070;2023-02-13T01:43:18;1.37;;;1.37;;
11263;SDS011;5689;48.798;9.070;2023-02-13T01:45:49;1.40;;;1.40;;
11263;SDS011;5689;48.798;9.070;2023-02-13T01:48:22;1.57;;;1.57;;
11263;SDS011;5689;48.798;9.070;2023-02-13T01:50:54;1.47;;;1.47;;
11263;SDS011;5689;48.798;9.070;2023-02-13T01:53:26;1.37;;;1.37;;
11263;SDS011;5689;48.798;9.070;2023-02-13T01:55:58;1.40;;;1.40;;
11263;SDS011;5689;48.798;9.070;2023-02-13T01:58:32;1.40;;;1.40;;
11263;SDS011;5689;48.798;9.070;2023-02-13T02:01:04;1.70;;;1.70;;
11263;SDS011;5689;48.798;9.070;2023-02-13T02:03:35;1.70;;;1.70;;
11263;SDS011;5689;48.798;9.070;2023-02-13T02:06:10;1.50;;;1.50;;
11263;SDS011;5689;48.798;9.070;2023-02-13T02:08:42;1.43;;;1.43;;
11263;SDS011;5689;48.798;9.070;2023-02-13T02:11:19;1.43;;;1.43;;
11263;SDS011;5689;48.798;9.070;2023-02-13T02:13:52;1.67;;;1.60;;
11263;SDS011;5689;48.798;9.070;2023-02-13T02:16:31;1.67;;;1.67;;
11263;SDS011;5689;48.798;9.070;2023-02-13T02:19:03;1.60;;;1.60;;
11263;SDS011;5689;48.798;9.070;2023-02-13T02:33:47;1.50;;;1.50;;
11263;SDS011;5689;48.798;9.070;2023-02-13T02:36:36;1.57;;;1.57;;
11263;SDS011;5689;48.798;9.070;2023-02-13T02:39:18;1.50;;;1.50;;
11263;SDS011;5689;48.798;9.070;2023-02-13T02:41:58;1.40;;;1.40;;
11263;SDS011;5689;48.798;9.070;2023-02-13T02:44:38;1.77;;;1.77;;
11263;SDS011;5689;48.798;9.070;2023-02-13T02:47:13;1.47;;;1.47;;
11263;SDS011;5689;48.798;9.070;2023-02-13T02:50:21;1.67;;;1.67;;
11263;SDS011;5689;48.798;9.070;2023-02-13T02:52:58;1.53;;;1.53;;
11263;SDS011;5689;48.798;9.070;2023-02-13T02:55:49;1.60;;;1.60;;
11263;SDS011;5689;48.798;9.070;2023-02-13T02:58:23;2.40;;;1.70;;
11263;SDS011;5689;48.798;9.070;2023-02-13T03:01:13;1.53;;;1.53;;
11263;SDS011;5689;48.798;9.070;2023-02-13T03:04:01;1.40;;;1.40;;
11263;SDS011;5689;48.798;9.070;2023-02-13T03:06:50;1.87;;;1.83;;
11263;SDS011;5689;48.798;9.070;2023-02-13T03:09:23;1.60;;;1.60;;
11263;SDS011;5689;48.798;9.070;2023-02-13T03:12:16;1.57;;;1.57;;
11263;SDS011;5689;48.798;9.070;2023-02-13T03:15:05;1.57;;;1.57;;
11263;SDS011;5689;48.798;9.070;2023-02-13T03:17:34;1.90;;;1.80;;
11263;SDS011;5689;48.798;9.070;2023-02-13T03:20:22;1.40;;;1.40;;
11263;SDS011;5689;48.798;9.070;2023-02-13T03:23:22;1.50;;;1.50;;
11263;SDS011;5689;48.798;9.070;2023-02-13T03:25:59;1.77;;;1.67;;
11263;SDS011;5689;48.798;9.070;2023-02-13T03:29:01;2.13;;;2.03;;
11263;SDS011;5689;48.798;9.070;2023-02-13T03:31:52;1.67;;;1.67;;
11263;SDS011;5689;48.798;9.070;2023-02-13T03:34:29;1.80;;;1.80;;
11263;SDS011;5689;48.798;9.070;2023-02-13T03:37:15;1.60;;;1.60;;
11263;SDS011;5689;48.798;9.070;2023-02-13T03:40:10;1.40;;;1.40;;
11263;SDS011;5689;48.798;9.070;2023-02-13T03:42:43;1.83;;;1.83;;
11263;SDS011;5689;48.798;9.070;2023-02-13T03:45:17;1.87;;;1.83;;
11263;SDS011;5689;48.798;9.070;2023-02-13T03:48:06;1.77;;;1.77;;
11263;SDS011;5689;48.798;9.070;2023-02-13T03:50:56;1.50;;;1.50;;
11263;SDS011;5689;48.798;9.070;2023-02-13T03:53:24;1.90;;;1.80;;
11263;SDS011;5689;48.798;9.070;2023-02-13T03:55:57;1.70;;;1.70;;
11263;SDS011;5689;48.798;9.070;2023-02-13T03:58:45;1.97;;;1.90;;
11263;SDS011;5689;48.798;9.070;2023-02-13T04:01:34;1.90;;;1.80;;
11263;SDS011;5689;48.798;9.070;2023-02-13T04:04:04;1.57;;;1.57;;
11263;SDS011;5689;48.798;9.070;2023-02-13T04:06:37;1.60;;;1.60;;
11263;SDS011;5689;48.798;9.070;2023-02-13T04:09:12;1.90;;;1.80;;
11263;SDS011;5689;48.798;9.070;2023-02-13T04:11:45;2.00;;;1.90;;
11263;SDS011;5689;48.798;9.070;2023-02-13T04:14:21;2.00;;;1.90;;
11263;SDS011;5689;48.798;9.070;2023-02-13T04:16:53;1.80;;;1.80;;
11263;SDS011;5689;48.798;9.070;2023-02-13T04:19:25;1.63;;;1.63;;
11263;SDS011;5689;48.798;9.070;2023-02-13T04:21:54;1.60;;;1.60;;
11263;SDS011;5689;48.798;9.070;2023-02-13T04:24:29;1.57;;;1.57;;
11263;SDS011;5689;48.798;9.070;2023-02-13T04:26:59;1.67;;;1.67;;
11263;SDS011;5689;48.798;9.070;2023-02-13T04:29:27;1.67;;;1.67;;
11263;SDS011;5689;48.798;9.070;2023-02-13T04:31:55;1.70;;;1.70;;
11263;SDS011;5689;48.798;9.070;2023-02-13T04:34:23;1.60;;;1.60;;
11263;SDS011;5689;48.798;9.070;2023-02-13T04:36:51;1.50;;;1.50;;
11263;SDS011;5689;48.798;9.070;2023-02-13T04:39:19;1.70;;;1.60;;
11263;SDS011;5689;48.798;9.070;2023-02-13T04:41:46;1.60;;;1.60;;
11263;SDS011;5689;48.798;9.070;2023-02-13T04:44:16;1.60;;;1.60;;
11263;SDS011;5689;48.798;9.070;2023-02-13T04:46:44;2.13;;;2.03;;
11263;SDS011;5689;48.798;9.070;2023-02-13T04:49:12;1.70;;;1.70;;
11263;SDS011;5689;48.798;9.070;2023-02-13T04:51:40;1.73;;;1.73;;
11263;SDS011;5689;48.798;9.070;2023-02-13T04:54:09;1.70;;;1.70;;
11263;SDS011;5689;48.798;9.070;2023-02-13T04:56:43;1.90;;;1.80;;
11263;SDS011;5689;48.798;9.070;2023-02-13T04:59:11;1.53;;;1.53;;
11263;SDS011;5689;48.798;9.070;2023-02-13T05:01:41;1.70;;;1.67;;
11263;SDS011;5689;48.798;9.070;2023-02-13T05:04:09;1.60;;;1.60;;
11263;SDS011;5689;48.798;9.070;2023-02-13T05:06:41;1.50;;;1.50;;
11263;SDS011;5689;48.798;9.070;2023-02-13T05:09:09;1.60;;;1.60;;
11263;SDS011;5689;48.798;9.070;2023-02-13T05:11:37;1.73;;;1.63;;
11263;SDS011;5689;48.798;9.070;2023-02-13T05:14:06;1.90;;;1.83;;
11263;SDS011;5689;48.798;9.070;2023-02-13T05:16:33;1.90;;;1.80;;
11263;SDS011;5689;48.798;9.070;2023-02-13T05:19:03;2.00;;;1.90;;
11263;SDS011;5689;48.798;9.070;2023-02-13T05:21:31;1.50;;;1.50;;
11263;SDS011;5689;48.798;9.070;2023-02-13T05:24:16;2.03;;;1.93;;
11263;SDS011;5689;48.798;9.070;2023-02-13T05:26:46;1.57;;;1.57;;
11263;SDS011;5689;48.798;9.070;2023-02-13T05:29:14;1.80;;;1.70;;
11263;SDS011;5689;48.798;9.070;2023-02-13T05:31:45;1.60;;;1.60;;
11263;SDS011;5689;48.798;9.070;2023-02-13T05:34:15;1.60;;;1.60;;
11263;SDS011;5689;48.798;9.070;2023-02-13T05:36:43;1.70;;;1.70;;
11263;SDS011;5689;48.798;9.070;2023-02-13T05:39:11;2.10;;;2.00;;
11263;SDS011;5689;48.798;9.070;2023-02-13T05:41:40;1.70;;;1.70;;
11263;SDS011;5689;48.798;9.070;2023-02-13T05:44:09;1.93;;;1.83;;
11263;SDS011;5689;48.798;9.070;2023-02-13T05:46:37;1.67;;;1.67;;
11263;SDS011;5689;48.798;9.070;2023-02-13T05:49:08;1.70;;;1.70;;
11263;SDS011;5689;48.798;9.070;2023-02-13T05:51:45;1.83;;;1.80;;
11263;SDS011;5689;48.798;9.070;2023-02-13T05:54:13;1.70;;;1.70;;
11263;SDS011;5689;48.798;9.070;2023-02-13T05:56:42;1.60;;;1.60;;
11263;SDS011;5689;48.798;9.070;2023-02-13T05:59:10;2.00;;;1.90;;
11263;SDS011;5689;48.798;9.070;2023-02-13T06:01:38;2.03;;;1.93;;
11263;SDS011;5689;48.798;9.070;2023-02-13T06:04:06;1.80;;;1.70;;
11263;SDS011;5689;48.798;9.070;2023-02-13T06:06:34;1.63;;;1.63;;
11263;SDS011;5689;48.798;9.070;2023-02-13T06:09:04;1.63;;;1.63;;
11263;SDS011;5689;48.798;9.070;2023-02-13T06:11:32;1.97;;;1.87;;
11263;SDS011;5689;48.798;9.070;2023-02-13T06:14:01;1.83;;;1.73;;
11263;SDS011;5689;48.798;9.070;2023-02-13T06:16:29;1.50;;;1.50;;
11263;SDS011;5689;48.798;9.070;2023-02-13T06:18:57;1.70;;;1.70;;
11263;SDS011;5689;48.798;9.070;2023-02-13T06:21:25;1.70;;;1.70;;
11263;SDS011;5689;48.798;9.070;2023-02-13T06:24:05;1.70;;;1.70;;
11263;SDS011;5689;48.798;9.070;2023-02-13T06:26:34;2.17;;;2.07;;
11263;SDS011;5689;48.798;9.070;2023-02-13T06:29:02;2.17;;;2.07;;
11263;SDS011;5689;48.798;9.070;2023-02-13T06:31:32;2.03;;;1.93;;
11263;SDS011;5689;48.798;9.070;2023-02-13T06:34:00;1.97;;;1.87;;
11263;SDS011;5689;48.798;9.070;2023-02-13T06:36:28;1.90;;;1.80;;
11263;SDS011;5689;48.798;9.070;2023-02-13T06:38:56;1.60;;;1.60;;
11263;SDS011;5689;48.798;9.070;2023-02-13T06:41:26;1.77;;;1.70;;
11263;SDS011;5689;48.798;9.070;2023-02-13T06:43:54;2.00;;;1.90;;
11263;SDS011;5689;48.798;9.070;2023-02-13T06:46:22;1.63;;;1.63;;
11263;SDS011;5689;48.798;9.070;2023-02-13T06:48:50;1.97;;;1.87;;
11263;SDS011;5689;48.798;9.070;2023-02-13T06:51:18;1.73;;;1.73;;
11263;SDS011;5689;48.798;9.070;2023-02-13T06:53:47;1.70;;;1.70;;
11263;SDS011;5689;48.798;9.070;2023-02-13T06:56:16;2.03;;;1.93;;
11263;SDS011;5689;48.798;9.070;2023-02-13T06:58:45;1.87;;;1.77;;
11263;SDS011;5689;48.798;9.070;2023-02-13T07:01:13;1.97;;;1.87;;
11263;SDS011;5689;48.798;9.070;2023-02-13T07:03:41;1.67;;;1.67;;
11263;SDS011;5689;48.798;9.070;2023-02-13T07:06:15;1.73;;;1.73;;
11263;SDS011;5689;48.798;9.070;2023-02-13T07:08:43;1.67;;;1.67;;
11263;SDS011;5689;48.798;9.070;2023-02-13T07:11:15;2.03;;;1.93;;
11263;SDS011;5689;48.798;9.070;2023-02-13T07:13:45;1.60;;;1.60;;
11263;SDS011;5689;48.798;9.070;2023-02-13T07:16:13;1.77;;;1.77;;
11263;SDS011;5689;48.798;9.070;2023-02-13T07:18:41;1.50;;;1.50;;
11263;SDS011;5689;48.798;9.070;2023-02-13T07:21:09;1.70;;;1.70;;
11263;SDS011;5689;48.798;9.070;2023-02-13T07:23:39;1.73;;;1.70;;
11263;SDS011;5689;48.798;9.070;2023-02-13T07:26:10;1.40;;;1.40;;
11263;SDS011;5689;48.798;9.070;2023-02-13T07:28:38;1.80;;;1.70;;
11263;SDS011;5689;48.798;9.070;2023-02-13T07:31:08;1.50;;;1.50;;
11263;SDS011;5689;48.798;9.070;2023-02-13T07:33:36;1.50;;;1.50;;
11263;SDS011;5689;48.798;9.070;2023-02-13T07:36:05;1.37;;;1.37;;
11263;SDS011;5689;48.798;9.070;2023-02-13T07:38:33;1.60;;;1.60;;
11263;SDS011;5689;48.798;9.070;2023-02-13T07:41:02;1.87;;;1.77;;
11263;SDS011;5689;48.798;9.070;2023-02-13T07:43:30;1.67;;;1.67;;
11263;SDS011;5689;48.798;9.070;2023-02-13T07:45:59;1.93;;;1.83;;
11263;SDS011;5689;48.798;9.070;2023-02-13T07:48:29;1.57;;;1.57;;
11263;SDS011;5689;48.798;9.070;2023-02-13T07:50:58;1.33;;;1.33;;
11263;SDS011;5689;48.798;9.070;2023-02-13T07:53:29;1.40;;;1.40;;
11263;SDS011;5689;48.798;9.070;2023-02-13T07:56:04;1.17;;;1.17;;
11263;SDS011;5689;48.798;9.070;2023-02-13T07:58:32;1.00;;;1.00;;
11263;SDS011;5689;48.798;9.070;2023-02-13T08:01:04;0.90;;;0.90;;
11263;SDS011;5689;48.798;9.070;2023-02-13T08:03:34;0.60;;;0.60;;
11263;SDS011;5689;48.798;9.070;2023-02-13T08:06:03;0.60;;;0.60;;
11263;SDS011;5689;48.798;9.070;2023-02-13T08:08:33;0.50;;;0.50;;
11263;SDS011;5689;48.798;9.070;2023-02-13T08:11:02;0.30;;;0.30;;
11263;SDS011;5689;48.798;9.070;2023-02-13T08:13:49;0.30;;;0.30;;
11263;SDS011;5689;48.798;9.070;2023-02-13T08:16:32;0.20;;;0.20;;
11263;SDS011;5689;48.798;9.070;2023-02-13T08:19:01;0.20;;;0.20;;
11263;SDS011;5689;48.798;9.070;2023-02-13T08:21:29;0.20;;;0.20;;
11263;SDS011;5689;48.798;9.070;2023-02-13T08:23:58;0.10;;;0.10;;
11263;SDS011;5689;48.798;9.070;2023-02-13T08:26:26;0.20;;;0.20;;
11263;SDS011;5689;48.798;9.070;2023-02-13T08:28:54;0.30;;;0.30;;
11263;SDS011;5689;48.798;9.070;2023-02-13T08:31:22;0.20;;;0.20;;
11263;SDS011;5689;48.798;9.070;2023-02-13T08:33:50;0.30;;;0.30;;
11263;SDS011;5689;48.798;9.070;2023-02-13T08:36:19;0.25;;;0.25;;
11263;SDS011;5689;48.798;9.070;2023-02-13T08:38:47;0.20;;;0.20;;
11263;SDS011;5689;48.798;9.070;2023-02-13T08:41:16;0.20;;;0.20;;
11263;SDS011;5689;48.798;9.070;2023-02-13T08:43:46;0.20;;;0.20;;
11263;SDS011;5689;48.798;9.070;2023-02-13T08:46:14;0.20;;;0.20;;
11263;SDS011;5689;48.798;9.070;2023-02-13T08:48:43;0.10;;;0.10;;
11263;SDS011;5689;48.798;9.070;2023-02-13T08:51:11;0.10;;;0.10;;
11263;SDS011;5689;48.798;9.070;2023-02-13T08:53:41;0.10;;;0.10;;
11263;SDS011;5689;48.798;9.070;2023-02-13T08:56:09;0.10;;;0.10;;
11263;SDS011;5689;48.798;9.070;2023-02-13T08:58:37;0.10;;;0.10;;
11263;SDS011;5689;48.798;9.070;2023-02-13T09:01:06;0.10;;;0.10;;
11263;SDS011;5689;48.798;9.070;2023-02-13T09:03:34;0.10;;;0.10;;
11263;SDS011;5689;48.798;9.070;2023-02-13T09:06:03;0.20;;;0.20;;
11263;SDS011;5689;48.798;9.070;2023-02-13T09:08:31;0.20;;;0.20;;
11263;SDS011;5689;48.798;9.070;2023-02-13T09:11:02;0.10;;;0.10;;
11263;SDS011;5689;48.798;9.070;2023-02-13T09:13:33;0.20;;;0.20;;
11263;SDS011;5689;48.798;9.070;2023-02-13T09:16:03;0.20;;;0.20;;
11263;SDS011;5689;48.798;9.070;2023-02-13T09:18:33;0.10;;;0.10;;
11263;SDS011;5689;48.798;9.070;2023-02-13T09:21:02;0.20;;;0.20;;
11263;SDS011;5689;48.798;9.070;2023-02-13T09:23:33;0.20;;;0.20;;
11263;SDS011;5689;48.798;9.070;2023-02-13T09:26:04;0.10;;;0.10;;
11263;SDS011;5689;48.798;9.070;2023-02-13T09:28:33;0.20;;;0.20;;
11263;SDS011;5689;48.798;9.070;2023-02-13T09:31:04;0.10;;;0.10;;
11263;SDS011;5689;48.798;9.070;2023-02-13T09:33:32;0.13;;;0.13;;
11263;SDS011;5689;48.798;9.070;2023-02-13T09:36:02;0.10;;;0.10;;
11263;SDS011;5689;48.798;9.070;2023-02-13T09:38:32;0.10;;;0.10;;
11263;SDS011;5689;48.798;9.070;2023-02-13T09:41:01;0.20;;;0.20;;
11263;SDS011;5689;48.798;9.070;2023-02-13T09:43:34;0.30;;;0.30;;
11263;SDS011;5689;48.798;9.070;2023-02-13T09:46:09;0.20;;;0.20;;
11263;SDS011;5689;48.798;9.070;2023-02-13T09:48:40;0.20;;;0.20;;
11263;SDS011;5689;48.798;9.070;2023-02-13T09:51:13;0.30;;;0.30;;
11263;SDS011;5689;48.798;9.070;2023-02-13T09:53:45;0.30;;;0.30;;
11263;SDS011;5689;48.798;9.070;2023-02-13T09:56:21;0.20;;;0.20;;
11263;SDS011;5689;48.798;9.070;2023-02-13T09:58:57;0.20;;;0.20;;
11263;SDS011;5689;48.798;9.070;2023-02-13T10:01:30;0.20;;;0.20;;
11263;SDS011;5689;48.798;9.070;2023-02-13T10:04:14;0.20;;;0.20;;
11263;SDS011;5689;48.798;9.070;2023-02-13T10:06:53;0.20;;;0.20;;
11263;SDS011;5689;48.798;9.070;2023-02-13T10:09:32;0.30;;;0.30;;
11263;SDS011;5689;48.798;9.070;2023-02-13T10:12:11;0.20;;;0.20;;
11263;SDS011;5689;48.798;9.070;2023-02-13T10:14:49;0.30;;;0.30;;
11263;SDS011;5689;48.798;9.070;2023-02-13T10:17:26;0.28;;;0.28;;
11263;SDS011;5689;48.798;9.070;2023-02-13T10:20:00;0.20;;;0.20;;
11263;SDS011;5689;48.798;9.070;2023-02-13T10:22:32;0.47;;;0.47;;
11263;SDS011;5689;48.798;9.070;2023-02-13T10:25:05;0.32;;;0.32;;
11263;SDS011;5689;48.798;9.070;2023-02-13T10:27:40;0.20;;;0.20;;
11263;SDS011;5689;48.798;9.070;2023-02-13T10:30:15;0.30;;;0.30;;
11263;SDS011;5689;48.798;9.070;2023-02-13T10:32:50;0.20;;;0.20;;
11263;SDS011;5689;48.798;9.070;2023-02-13T10:35:39;0.20;;;0.20;;
11263;SDS011;5689;48.798;9.070;2023-02-13T10:38:11;0.20;;;0.20;;
11263;SDS011;5689;48.798;9.070;2023-02-13T10:40:47;0.10;;;0.10;;
11263;SDS011;5689;48.798;9.070;2023-02-13T10:43:28;0.20;;;0.20;;
11263;SDS011;5689;48.798;9.070;2023-02-13T10:46:02;0.20;;;0.20;;
11263;SDS011;5689;48.798;9.070;2023-02-13T10:51:44;0.20;;;0.20;;
11263;SDS011;5689;48.798;9.070;2023-02-13T10:54:21;0.28;;;0.28;;
11263;SDS011;5689;48.798;9.070;2023-02-13T10:57:02;0.20;;;0.20;;
11263;SDS011;5689;48.798;9.070;2023-02-13T11:02:32;0.20;;;0.20;;
11263;SDS011;5689;48.798;9.070;2023-02-13T11:05:06;0.20;;;0.20;;
11263;SDS011;5689;48.798;9.070;2023-02-13T11:07:44;0.20;;;0.20;;
11263;SDS011;5689;48.798;9.070;2023-02-13T11:10:14;0.10;;;0.10;;
11263;SDS011;5689;48.798;9.070;2023-02-13T11:12:44;0.10;;;0.10;;
11263;SDS011;5689;48.798;9.070;2023-02-13T11:15:26;0.20;;;0.20;;
11263;SDS011;5689;48.798;9.070;2023-02-13T11:17:56;0.10;;;0.10;;
11263;SDS011;5689;48.798;9.070;2023-02-13T11:20:28;0.10;;;0.10;;
11263;SDS011;5689;48.798;9.070;2023-02-13T11:26:08;0.10;;;0.10;;
11263;SDS011;5689;48.798;9.070;2023-02-13T11:28:44;0.10;;;0.10;;
11263;SDS011;5689;48.798;9.070;2023-02-13T11:31:24;0.00;;;0.00;;
11263;SDS011;5689;48.798;9.070;2023-02-13T11:33:53;0.10;;;0.10;;
11263;SDS011;5689;48.798;9.070;2023-02-13T11:36:25;0.10;;;0.10;;
11263;SDS011;5689;48.798;9.070;2023-02-13T11:38:56;0.10;;;0.10;;
11263;SDS011;5689;48.798;9.070;2023-02-13T11:41:25;0.10;;;0.10;;
11263;SDS011;5689;48.798;9.070;2023-02-13T11:43:56;0.20;;;0.20;;
11263;SDS011;5689;48.798;9.070;2023-02-13T11:46:42;0.20;;;0.20;;
11263;SDS011;5689;48.798;9.070;2023-02-13T11:49:14;0.20;;;0.20;;
11263;SDS011;5689;48.798;9.070;2023-02-13T11:51:45;0.20;;;0.20;;
11263;SDS011;5689;48.798;9.070;2023-02-13T11:57:16;0.35;;;0.35;;
11263;SDS011;5689;48.798;9.070;2023-02-13T11:59:46;0.20;;;0.20;;
11263;SDS011;5689;48.798;9.070;2023-02-13T12:02:18;0.20;;;0.20;;
11263;SDS011;5689;48.798;9.070;2023-02-13T12:04:48;0.20;;;0.20;;
11263;SDS011;5689;48.798;9.070;2023-02-13T12:07:19;0.10;;;0.10;;
11263;SDS011;5689;48.798;9.070;2023-02-13T12:09:50;0.20;;;0.20;;
11263;SDS011;5689;48.798;9.070;2023-02-13T12:12:23;0.30;;;0.30;;
11263;SDS011;5689;48.798;9.070;2023-02-13T12:14:55;0.20;;;0.20;;
11263;SDS011;5689;48.798;9.070;2023-02-13T12:17:26;0.25;;;0.25;;
11263;SDS011;5689;48.798;9.070;2023-02-13T12:19:58;0.30;;;0.30;;
11263;SDS011;5689;48.798;9.070;2023-02-13T12:22:30;0.20;;;0.20;;
11263;SDS011;5689;48.798;9.070;2023-02-13T12:25:11;0.20;;;0.20;;
11263;SDS011;5689;48.798;9.070;2023-02-13T12:28:09;0.20;;;0.20;;
11263;SDS011;5689;48.798;9.070;2023-02-13T12:30:52;0.10;;;0.10;;
11263;SDS011;5689;48.798;9.070;2023-02-13T12:33:39;0.10;;;0.10;;
11263;SDS011;5689;48.798;9.070;2023-02-13T12:36:31;0.10;;;0.10;;
11263;SDS011;5689;48.798;9.070;2023-02-13T12:39:13;0.10;;;0.10;;
11263;SDS011;5689;48.798;9.070;2023-02-13T12:41:48;0.20;;;0.20;;
11263;SDS011;5689;48.798;9.070;2023-02-13T12:44:38;0.30;;;0.30;;
11263;SDS011;5689;48.798;9.070;2023-02-13T12:47:25;0.20;;;0.20;;
11263;SDS011;5689;48.798;9.070;2023-02-13T12:53:20;0.20;;;0.20;;
11263;SDS011;5689;48.798;9.070;2023-02-13T12:56:07;0.30;;;0.30;;
11263;SDS011;5689;48.798;9.070;2023-02-13T12:58:56;0.30;;;0.30;;
11263;SDS011;5689;48.798;9.070;2023-02-13T13:01:44;0.30;;;0.30;;
11263;SDS011;5689;48.798;9.070;2023-02-13T13:04:22;0.20;;;0.20;;
11263;SDS011;5689;48.798;9.070;2023-02-13T13:07:06;0.30;;;0.30;;
11263;SDS011;5689;48.798;9.070;2023-02-13T13:09:58;0.30;;;0.30;;
11263;SDS011;5689;48.798;9.070;2023-02-13T13:12:47;0.30;;;0.30;;
11263;SDS011;5689;48.798;9.070;2023-02-13T13:15:24;0.20;;;0.20;;
11263;SDS011;5689;48.798;9.070;2023-02-13T13:18:07;0.30;;;0.30;;
11263;SDS011;5689;48.798;9.070;2023-02-13T13:20:55;0.20;;;0.20;;
11263;SDS011;5689;48.798;9.070;2023-02-13T13:23:31;0.10;;;0.10;;
11263;SDS011;5689;48.798;9.070;2023-02-13T13:26:10;0.10;;;0.10;;
11263;SDS011;5689;48.798;9.070;2023-02-13T13:28:47;0.10;;;0.10;;
11263;SDS011;5689;48.798;9.070;2023-02-13T13:31:18;0.10;;;0.10;;
11263;SDS011;5689;48.798;9.070;2023-02-13T13:33:49;0.10;;;0.10;;
11263;SDS011;5689;48.798;9.070;2023-02-13T13:36:20;0.20;;;0.20;;
11263;SDS011;5689;48.798;9.070;2023-02-13T13:38:59;0.10;;;0.10;;
11263;SDS011;5689;48.798;9.070;2023-02-13T13:41:34;0.20;;;0.20;;
11263;SDS011;5689;48.798;9.070;2023-02-13T13:44:13;0.17;;;0.17;;
11263;SDS011;5689;48.798;9.070;2023-02-13T13:47:01;0.20;;;0.20;;
11263;SDS011;5689;48.798;9.070;2023-02-13T13:49:36;0.30;;;0.30;;
11263;SDS011;5689;48.798;9.070;2023-02-13T13:52:19;0.20;;;0.20;;
11263;SDS011;5689;48.798;9.070;2023-02-13T13:54:51;0.20;;;0.20;;
11263;SDS011;5689;48.798;9.070;2023-02-13T13:57:21;0.30;;;0.30;;
11263;SDS011;5689;48.798;9.070;2023-02-13T14:03:12;0.20;;;0.20;;
11263;SDS011;5689;48.798;9.070;2023-02-13T14:05:56;0.20;;;0.20;;
11263;SDS011;5689;48.798;9.070;2023-02-13T14:11:25;0.30;;;0.30;;
11263;SDS011;5689;48.798;9.070;2023-02-13T14:17:15;0.28;;;0.28;;
11263;SDS011;5689;48.798;9.070;2023-02-13T14:20:18;0.20;;;0.20;;
11263;SDS011;5689;48.798;9.070;2023-02-13T14:22:48;0.20;;;0.20;;
11263;SDS011;5689;48.798;9.070;2023-02-13T14:25:20;0.30;;;0.30;;
11263;SDS011;5689;48.798;9.070;2023-02-13T14:27:54;0.22;;;0.22;;
11263;SDS011;5689;48.798;9.070;2023-02-13T14:30:25;0.20;;;0.20;;
11263;SDS011;5689;48.798;9.070;2023-02-13T14:32:57;0.25;;;0.25;;
11263;SDS011;5689;48.798;9.070;2023-02-13T14:35:31;0.30;;;0.30;;
11263;SDS011;5689;48.798;9.070;2023-02-13T14:38:03;0.20;;;0.20;;
11263;SDS011;5689;48.798;9.070;2023-02-13T14:43:27;0.20;;;0.20;;
11263;SDS011;5689;48.798;9.070;2023-02-13T14:46:01;0.30;;;0.30;;
11263;SDS011;5689;48.798;9.070;2023-02-13T14:48:49;0.30;;;0.30;;
11263;SDS011;5689;48.798;9.070;2023-02-13T14:51:23;0.30;;;0.30;;
11263;SDS011;5689;48.798;9.070;2023-02-13T14:53:58;0.28;;;0.28;;
11263;SDS011;5689;48.798;9.070;2023-02-13T14:56:56;0.30;;;0.30;;
11263;SDS011;5689;48.798;9.070;2023-02-13T14:59:32;0.20;;;0.20;;
11263;SDS011;5689;48.798;9.070;2023-02-13T15:02:06;0.30;;;0.30;;
11263;SDS011;5689;48.798;9.070;2023-02-13T15:04:43;0.30;;;0.30;;
11263;SDS011;5689;48.798;9.070;2023-02-13T15:07:16;0.30;;;0.30;;
11263;SDS011;5689;48.798;9.070;2023-02-13T15:09:49;0.30;;;0.30;;
11263;SDS011;5689;48.798;9.070;2023-02-13T15:12:24;0.30;;;0.30;;
11263;SDS011;5689;48.798;9.070;2023-02-13T15:14:53;0.30;;;0.30;;
11263;SDS011;5689;48.798;9.070;2023-02-13T15:17:23;0.30;;;0.30;;
11263;SDS011;5689;48.798;9.070;2023-02-13T15:19:58;0.30;;;0.30;;
11263;SDS011;5689;48.798;9.070;2023-02-13T15:22:30;0.25;;;0.25;;
11263;SDS011;5689;48.798;9.070;2023-02-13T15:25:02;0.30;;;0.30;;
11263;SDS011;5689;48.798;9.070;2023-02-13T15:27:33;0.30;;;0.30;;
11263;SDS011;5689;48.798;9.070;2023-02-13T15:30:17;0.30;;;0.30;;
11263;SDS011;5689;48.798;9.070;2023-02-13T15:32:52;0.25;;;0.25;;
11263;SDS011;5689;48.798;9.070;2023-02-13T15:35:23;0.30;;;0.30;;
11263;SDS011;5689;48.798;9.070;2023-02-13T15:37:53;0.22;;;0.22;;
11263;SDS011;5689;48.798;9.070;2023-02-13T15:40:23;0.20;;;0.20;;
11263;SDS011;5689;48.798;9.070;2023-02-13T15:42:54;0.20;;;0.20;;
11263;SDS011;5689;48.798;9.070;2023-02-13T15:45:24;0.20;;;0.20;;
11263;SDS011;5689;48.798;9.070;2023-02-13T15:47:54;0.20;;;0.20;;
11263;SDS011;5689;48.798;9.070;2023-02-13T15:50:27;0.20;;;0.20;;
11263;SDS011;5689;48.798;9.070;2023-02-13T15:52:57;0.30;;;0.30;;
11263;SDS011;5689;48.798;9.070;2023-02-13T15:55:27;0.30;;;0.30;;
11263;SDS011;5689;48.798;9.070;2023-02-13T15:57:57;0.40;;;0.40;;
11263;SDS011;5689;48.798;9.070;2023-02-13T16:00:28;0.40;;;0.40;;
11263;SDS011;5689;48.798;9.070;2023-02-13T16:03:00;0.30;;;0.30;;
11263;SDS011;5689;48.798;9.070;2023-02-13T16:05:36;0.30;;;0.30;;
11263;SDS011;5689;48.798;9.070;2023-02-13T16:08:23;0.40;;;0.40;;
11263;SDS011;5689;48.798;9.070;2023-02-13T16:13:48;0.40;;;0.40;;
11263;SDS011;5689;48.798;9.070;2023-02-13T16:16:23;0.40;;;0.40;;
11263;SDS011;5689;48.798;9.070;2023-02-13T16:18:52;0.30;;;0.30;;
11263;SDS011;5689;48.798;9.070;2023-02-13T16:21:22;0.50;;;0.50;;